Time;durP1;ratioP1;P1;durP2;ratioP2;P2;SDS_P1;SDS_P2;PMS_P1;PMS_P2;Temp;Humidity;BMP_temperature;BMP_pressure;BME280_temperature;BME280_humidity;BME280_pressure;Samples;Min_cycle;Max_cycle;Signal;HPM_P1;HPM_P2
2023/08/02 00:01:49;;;;;;;;;;;;;;;15.48;90.51;100070.78;5072080;28;19979;-81
2023/08/02 00:04:15;;;;;;;;;;;;;;;15.48;91.23;100060.13;5072383;28;19921;-81
2023/08/02 00:06:40;;;;;;;;;;;;;;;15.46;90.52;100061.16;5071976;28;19928;-81
2023/08/02 00:09:06;;;;;;;;;;;;;;;15.42;91.27;100052.44;5071627;28;20114;-81
2023/08/02 00:11:31;;;;;;;;;;;;;;;15.39;90.09;100063.28;5071900;28;19925;-81
2023/08/02 00:13:56;;;;;;;;;;;;;;;15.36;90.26;100065.25;5072013;28;19987;-81
2023/08/02 00:16:22;;;;;;;;;;;;;;;15.32;91.85;100074.38;5072064;28;20062;-81
2023/08/02 00:18:47;;;;;;;;;;;;;;;15.30;91.60;100076.25;5072006;28;19920;-81
2023/08/02 00:21:12;;;;;;;;;;;;;;;15.28;91.91;100078.97;5071623;28;19916;-81
2023/08/02 00:23:38;;;;;;;;;;;;;;;15.26;91.76;100072.91;5072953;28;19916;-81
2023/08/02 00:26:03;;;;;;;;;;;;;;;15.23;92.41;100073.94;5071453;28;19927;-81
2023/08/02 00:28:29;;;;;;;;;;;;;;;15.20;92.92;100079.41;5087092;28;19977;-81
2023/08/02 00:30:54;;;;;;;;;;;;;;;15.18;91.84;100078.66;5092130;28;19920;-81
2023/08/02 00:33:19;;;;;;;;;;;;;;;15.15;92.51;100062.78;5075434;28;19916;-81
2023/08/02 00:35:45;;;;;;;;;;;;;;;15.12;91.39;100064.75;5069101;28;20358;-81
2023/08/02 00:38:11;;;;;;;;;;;;;;;15.08;91.33;100068.53;5081799;28;19978;-81
2023/08/02 00:40:37;;;;;;;;;;;;;;;15.05;93.55;100053.56;5090866;28;19920;-81
2023/08/02 00:43:02;;;;;;;;;;;;;;;15.01;93.94;100044.88;5092063;28;19974;-81
2023/08/02 00:45:29;;;;;;;;;;;;;;;14.97;92.84;100040.63;5079216;28;19917;-81
2023/08/02 00:47:54;;;;;;;;;;;;;;;14.95;94.55;100042.50;5093108;28;19939;-81
2023/08/02 00:50:20;;;;;;;;;;;;;;;14.91;95.81;100038.31;5081534;28;19925;-81
2023/08/02 00:52:46;;;;;;;;;;;;;;;14.86;94.18;100034.13;5091575;28;20439;-82
2023/08/02 00:55:11;;;;;;;;;;;;;;;14.85;94.63;100025.28;5093100;28;19916;-80
2023/08/02 00:57:37;;;;;;;;;;;;;;;14.84;93.39;100026.22;5057979;28;19965;-80
2023/08/02 01:00:02;;;;;;;;;;;;;;;14.85;94.20;100017.28;5091553;28;19920;-81
2023/08/02 01:02:28;;;;;;;;;;;;;;;14.92;95.67;100016.00;5078576;28;19924;-81
2023/08/02 01:04:53;;;;;;;;;;;;;;;14.90;97.15;100019.72;5092970;28;19928;-80
2023/08/02 01:07:19;;;;;;;;;;;;;;;14.89;98.09;100026.00;5091353;28;19955;-81
2023/08/02 01:09:52;;;;;;;;;;;;;;;14.88;97.66;100018.91;5088322;28;19963;-81
2023/08/02 01:12:19;;;;;;;;;;;;;;;14.88;96.24;100021.59;5091100;28;19962;-80
2023/08/02 01:14:47;;;;;;;;;;;;;;;14.89;96.86;100023.34;5091432;28;19968;-80
2023/08/02 01:17:13;;;;;;;;;;;;;;;14.91;94.94;100024.97;5074668;28;19920;-80
2023/08/02 01:19:38;;;;;;;;;;;;;;;14.92;96.86;100021.34;5092626;28;20274;-81
2023/08/02 01:22:04;;;;;;;;;;;;;;;14.98;95.46;100021.00;5093077;28;20019;-80
2023/08/02 01:24:33;;;;;;;;;;;;;;;14.99;97.16;100021.91;5092425;28;19920;-80
2023/08/02 01:27:01;;;;;;;;;;;;;;;15.01;97.92;100022.69;5092561;28;19918;-80
2023/08/02 01:29:27;;;;;;;;;;;;;;;15.00;97.98;100021.78;5090962;28;20006;-80
2023/08/02 01:31:54;;;;;;;;;;;;;;;15.01;96.57;100014.69;5084724;28;20038;-80
2023/08/02 01:34:20;;;;;;;;;;;;;;;15.01;96.59;100018.19;5071219;28;20282;-80
2023/08/02 01:36:46;;;;;;;;;;;;;;;15.02;96.15;100005.72;5074958;28;19916;-80
2023/08/02 01:39:11;;;;;;;;;;;;;;;15.02;97.89;100003.91;5082958;28;20338;-80
2023/08/02 01:41:37;;;;;;;;;;;;;;;15.06;96.91;100001.97;5092014;28;19920;-80
2023/08/02 01:44:02;;;;;;;;;;;;;;;15.08;97.45;100005.38;5090957;28;20015;-80
2023/08/02 01:46:29;;;;;;;;;;;;;;;15.08;97.07;100005.38;5057666;28;19920;-80
2023/08/02 01:48:54;;;;;;;;;;;;;;;15.12;97.77;99998.09;5092266;28;20286;-80
2023/08/02 01:51:19;;;;;;;;;;;;;;;15.11;97.01;99985.69;5083396;28;19924;-80
2023/08/02 01:53:45;;;;;;;;;;;;;;;15.12;98.64;99982.09;5076496;28;19943;-80
2023/08/02 01:56:10;;;;;;;;;;;;;;;15.13;98.68;99974.00;5073771;28;19920;-80
2023/08/02 01:58:35;;;;;;;;;;;;;;;15.15;97.38;99971.25;5090406;28;19920;-80
2023/08/02 02:01:01;;;;;;;;;;;;;;;15.17;97.78;99972.03;5089684;28;20635;-80
2023/08/02 02:03:26;;;;;;;;;;;;;;;15.19;97.32;99967.47;5056753;28;19920;-80
2023/08/02 02:05:53;;;;;;;;;;;;;;;15.20;98.69;99953.19;5091691;28;19924;-80
2023/08/02 02:08:18;;;;;;;;;;;;;;;15.22;98.98;99945.97;5090399;28;20035;-80
2023/08/02 02:10:47;;;;;;;;;;;;;;;15.21;98.50;99931.78;5072955;28;20355;-80
2023/08/02 02:13:12;;;;;;;;;;;;;;;15.19;98.00;99931.00;5071736;28;19966;-80
2023/08/02 02:15:38;;;;;;;;;;;;;;;15.19;97.34;99925.66;5059780;28;19924;-80
2023/08/02 02:18:03;;;;;;;;;;;;;;;15.20;97.25;99931.84;5072766;28;19916;-79
2023/08/02 02:20:29;;;;;;;;;;;;;;;15.19;97.11;99930.16;5072348;28;19916;-80
2023/08/02 02:22:57;;;;;;;;;;;;;;;15.17;97.15;99924.03;5054127;28;19920;-80
2023/08/02 02:25:22;;;;;;;;;;;;;;;15.16;97.46;99909.00;5055508;28;20019;-80
2023/08/02 02:27:48;;;;;;;;;;;;;;;15.17;97.83;99898.22;5070110;28;20015;-80
2023/08/02 02:30:13;;;;;;;;;;;;;;;15.18;98.04;99893.75;5069986;28;20020;-80
2023/08/02 02:32:38;;;;;;;;;;;;;;;15.17;97.17;99879.56;5035678;28;19969;-80
2023/08/02 02:35:04;;;;;;;;;;;;;;;15.19;99.52;99868.81;5070020;28;20032;-80
2023/08/02 02:37:30;;;;;;;;;;;;;;;15.20;97.91;99889.19;5075613;28;19981;-80
2023/08/02 02:39:57;;;;;;;;;;;;;;;15.20;98.14;99883.84;5085602;28;19946;-80
2023/08/02 02:42:22;;;;;;;;;;;;;;;15.22;97.54;99868.63;5089997;28;20278;-80
2023/08/02 02:44:48;;;;;;;;;;;;;;;15.21;97.59;99867.78;5090050;28;19920;-80
2023/08/02 02:47:13;;;;;;;;;;;;;;;15.22;98.00;99858.81;5091370;28;19974;-80
2023/08/02 02:49:39;;;;;;;;;;;;;;;15.20;98.16;99863.38;5086543;28;19997;-80
2023/08/02 02:52:04;;;;;;;;;;;;;;;15.19;97.64;99885.66;5088538;28;20370;-80
2023/08/02 02:54:30;;;;;;;;;;;;;;;15.20;98.51;99871.38;5089972;28;20033;-80
2023/08/02 02:56:55;;;;;;;;;;;;;;;15.20;98.58;99873.19;5091136;28;19921;-80
2023/08/02 02:59:20;;;;;;;;;;;;;;;15.22;99.25;99871.28;5089925;28;19920;-80
2023/08/02 03:01:46;;;;;;;;;;;;;;;15.21;99.34;99851.78;5089993;28;20270;-80
2023/08/02 03:04:11;;;;;;;;;;;;;;;15.22;100.00;99845.47;5064529;28;20337;-80
2023/08/02 03:06:36;;;;;;;;;;;;;;;15.23;100.00;99847.22;5055094;28;19927;-80
2023/08/02 03:09:02;;;;;;;;;;;;;;;15.24;99.80;99834.72;5065461;28;20015;-80
2023/08/02 03:11:27;;;;;;;;;;;;;;;15.25;99.56;99817.78;5052820;28;19925;-80
2023/08/02 03:13:53;;;;;;;;;;;;;;;15.24;99.62;99808.91;5073670;28;20066;-80
2023/08/02 03:16:18;;;;;;;;;;;;;;;15.26;99.51;99798.16;5073600;28;20363;-80
2023/08/02 03:18:43;;;;;;;;;;;;;;;15.27;99.75;99797.22;5073280;28;20244;-80
2023/08/02 03:21:09;;;;;;;;;;;;;;;15.30;99.49;99790.84;5056814;28;20326;-80
2023/08/02 03:23:34;;;;;;;;;;;;;;;15.30;99.02;99782.84;5073497;28;19939;-81
2023/08/02 03:26:00;;;;;;;;;;;;;;;15.31;98.42;99780.09;5073404;28;20002;-80
2023/08/02 03:28:25;;;;;;;;;;;;;;;15.32;98.23;99770.28;5056657;28;20375;-81
2023/08/02 03:30:53;;;;;;;;;;;;;;;15.30;98.49;99758.84;5072654;28;19959;-81
2023/08/02 03:33:18;;;;;;;;;;;;;;;15.29;98.86;99765.13;5074335;28;19924;-81
2023/08/02 03:35:44;;;;;;;;;;;;;;;15.29;98.68;99757.13;5073429;28;20252;-82
2023/08/02 03:38:09;;;;;;;;;;;;;;;15.30;98.00;99761.50;5079709;28;19923;-82
2023/08/02 03:40:35;;;;;;;;;;;;;;;15.30;99.83;99758.84;5094871;28;19958;-81
2023/08/02 03:43:00;;;;;;;;;;;;;;;15.30;98.86;99759.69;5095007;28;19916;-82
2023/08/02 03:45:25;;;;;;;;;;;;;;;15.29;98.86;99749.97;5094660;28;19943;-81
2023/08/02 03:47:51;;;;;;;;;;;;;;;15.29;98.57;99749.97;5093172;28;19920;-81
2023/08/02 03:50:16;;;;;;;;;;;;;;;15.30;99.13;99745.50;5066054;28;19969;-81
2023/08/02 03:52:41;;;;;;;;;;;;;;;15.30;99.46;99743.69;5082848;28;20004;-81
2023/08/02 03:55:07;;;;;;;;;;;;;;;15.31;100.00;99732.06;5076098;28;19912;-81
2023/08/02 03:57:32;;;;;;;;;;;;;;;15.31;99.64;99720.56;5066228;28;19981;-81
2023/08/02 03:59:58;;;;;;;;;;;;;;;15.31;99.08;99715.22;5066663;28;19920;-81
2023/08/02 04:02:23;;;;;;;;;;;;;;;15.32;99.85;99716.94;5073957;28;20010;-81
2023/08/02 04:04:48;;;;;;;;;;;;;;;15.32;100.00;99711.59;5082445;28;19927;-81
2023/08/02 04:07:14;;;;;;;;;;;;;;;15.33;100.00;99715.97;5071905;28;19926;-80
2023/08/02 04:09:39;;;;;;;;;;;;;;;15.32;100.00;99698.25;5064424;28;19924;-80
2023/08/02 04:12:05;;;;;;;;;;;;;;;15.34;99.90;99691.03;5082197;28;19931;-81
2023/08/02 04:14:30;;;;;;;;;;;;;;;15.35;100.00;99695.41;5092772;28;19927;-81
2023/08/02 04:16:55;;;;;;;;;;;;;;;15.34;100.00;99691.03;5092616;28;19916;-80
2023/08/02 04:19:21;;;;;;;;;;;;;;;15.35;100.00;99672.25;5075836;28;19920;-81
2023/08/02 04:21:47;;;;;;;;;;;;;;;15.35;100.00;99666.06;5092783;28;19999;-80
2023/08/02 04:24:12;;;;;;;;;;;;;;;15.33;100.00;99662.63;5091415;28;19920;-81
2023/08/02 04:26:38;;;;;;;;;;;;;;;15.33;100.00;99665.28;5092555;28;19928;-81
2023/08/02 04:29:03;;;;;;;;;;;;;;;15.35;100.00;99660.72;5093703;28;19969;-80
2023/08/02 04:31:28;;;;;;;;;;;;;;;15.34;100.00;99651.00;5085228;28;19931;-80
2023/08/02 04:33:54;;;;;;;;;;;;;;;15.34;100.00;99649.19;5075853;28;20405;-81
2023/08/02 04:36:20;;;;;;;;;;;;;;;15.34;100.00;99627.88;5075520;28;19947;-80
2023/08/02 04:38:45;;;;;;;;;;;;;;;15.34;100.00;99614.53;5083162;28;19920;-80
2023/08/02 04:41:14;;;;;;;;;;;;;;;15.34;100.00;99619.00;5091870;28;19926;-80
2023/08/02 04:43:40;;;;;;;;;;;;;;;15.33;100.00;99610.16;5092038;28;20269;-80
2023/08/02 04:46:05;;;;;;;;;;;;;;;15.34;100.00;99603.00;5093293;28;19916;-80
2023/08/02 04:48:30;;;;;;;;;;;;;;;15.34;100.00;99597.66;5075001;28;19950;-81
2023/08/02 04:50:56;;;;;;;;;;;;;;;15.35;100.00;99592.22;5083882;28;19935;-80
2023/08/02 04:53:21;;;;;;;;;;;;;;;15.35;100.00;99573.56;5091917;28;19916;-80
2023/08/02 04:55:49;;;;;;;;;;;;;;;15.33;100.00;99572.81;5049094;28;19956;-81
2023/08/02 04:58:15;;;;;;;;;;;;;;;15.33;100.00;99575.47;5065244;28;19963;-81
2023/08/02 05:00:40;;;;;;;;;;;;;;;15.34;100.00;99568.31;5075897;28;19920;-81
2023/08/02 05:03:05;;;;;;;;;;;;;;;15.35;100.00;99557.53;5093614;28;19954;-81
2023/08/02 05:05:31;;;;;;;;;;;;;;;15.36;100.00;99558.44;5078890;28;19920;-80
2023/08/02 05:07:57;;;;;;;;;;;;;;;15.35;100.00;99556.69;5096517;28;20358;-80
2023/08/02 05:10:22;;;;;;;;;;;;;;;15.36;100.00;99555.75;5065903;28;19921;-80
2023/08/02 05:12:47;;;;;;;;;;;;;;;15.36;100.00;99550.44;5064672;28;20327;-80
2023/08/02 05:15:13;;;;;;;;;;;;;;;15.34;100.00;99552.31;5071688;28;19920;-79
2023/08/02 05:17:38;;;;;;;;;;;;;;;15.35;100.00;99549.53;5054517;28;19932;-80
2023/08/02 05:20:04;;;;;;;;;;;;;;;15.35;100.00;99552.22;5054780;28;20279;-81
2023/08/02 05:22:31;;;;;;;;;;;;;;;15.35;100.00;99532.69;5071801;28;19920;-82
2023/08/02 05:24:56;;;;;;;;;;;;;;;15.37;100.00;99520.97;5054905;28;19925;-80
2023/08/02 05:27:22;;;;;;;;;;;;;;;15.35;100.00;99525.53;5071248;28;19921;-81
2023/08/02 05:29:47;;;;;;;;;;;;;;;15.35;100.00;99519.34;5054549;28;19969;-82
2023/08/02 05:32:12;;;;;;;;;;;;;;;15.32;100.00;99514.22;5056546;28;19920;-81
2023/08/02 05:34:38;;;;;;;;;;;;;;;15.31;100.00;99504.50;5074573;28;20011;-82
2023/08/02 05:37:03;;;;;;;;;;;;;;;15.30;100.00;99492.97;5083135;28;19974;-82
2023/08/02 05:39:29;;;;;;;;;;;;;;;15.29;100.00;99490.41;5076747;28;19946;-83
2023/08/02 05:41:54;;;;;;;;;;;;;;;15.30;100.00;99478.78;5061515;28;19924;-83
2023/08/02 05:44:19;;;;;;;;;;;;;;;15.26;100.00;99473.66;5079351;28;19916;-83
2023/08/02 05:46:45;;;;;;;;;;;;;;;15.26;100.00;99473.66;5065939;28;19952;-83
2023/08/02 05:49:10;;;;;;;;;;;;;;;15.25;100.00;99460.41;5074921;28;19939;-83
2023/08/02 05:51:36;;;;;;;;;;;;;;;15.23;100.00;99455.19;5076640;28;20423;-82
2023/08/02 05:54:01;;;;;;;;;;;;;;;15.23;100.00;99455.19;5072032;28;20338;-83
2023/08/02 05:56:26;;;;;;;;;;;;;;;15.25;100.00;99449.72;5086001;28;20236;-83
2023/08/02 05:58:52;;;;;;;;;;;;;;;15.23;100.00;99441.84;5085217;28;19943;-82
2023/08/02 06:01:17;;;;;;;;;;;;;;;15.25;100.00;99433.72;5070389;28;20385;-84
2023/08/02 06:03:42;;;;;;;;;;;;;;;15.26;100.00;99427.47;5069106;28;19921;-82
2023/08/02 06:06:08;;;;;;;;;;;;;;;15.23;100.00;99412.50;5070308;28;20363;-83
2023/08/02 06:08:33;;;;;;;;;;;;;;;15.24;100.00;99400.03;5070450;28;20035;-83
2023/08/02 06:11:01;;;;;;;;;;;;;;;15.23;100.00;99401.84;5069233;28;19925;-84
2023/08/02 06:13:26;;;;;;;;;;;;;;;15.24;100.00;99384.03;5044762;28;20013;-83
2023/08/02 06:15:51;;;;;;;;;;;;;;;15.25;100.00;99383.06;5068459;28;19916;-84
2023/08/02 06:18:17;;;;;;;;;;;;;;;15.25;100.00;99375.06;5069748;28;19963;-82
2023/08/02 06:20:42;;;;;;;;;;;;;;;15.24;100.00;99363.53;5069679;28;19920;-83
2023/08/02 06:23:07;;;;;;;;;;;;;;;15.26;100.00;99361.63;5043959;28;20011;-82
2023/08/02 06:25:33;;;;;;;;;;;;;;;15.25;100.00;99359.06;5069887;28;19920;-84
2023/08/02 06:27:58;;;;;;;;;;;;;;;15.26;100.00;99358.13;5064332;28;19929;-82
2023/08/02 06:30:24;;;;;;;;;;;;;;;15.27;100.00;99347.31;5069595;28;19973;-83
2023/08/02 06:32:49;;;;;;;;;;;;;;;15.27;100.00;99338.47;5052338;28;20367;-81
2023/08/02 06:35:14;;;;;;;;;;;;;;;15.27;100.00;99339.34;5069169;28;20263;-81
2023/08/02 06:37:40;;;;;;;;;;;;;;;15.27;100.00;99330.47;5053050;28;20007;-82
2023/08/02 06:40:06;;;;;;;;;;;;;;;15.26;100.00;99316.28;5082753;28;19928;-82
2023/08/02 06:42:31;;;;;;;;;;;;;;;15.25;100.00;99314.56;5089357;28;19927;-82
2023/08/02 06:44:57;;;;;;;;;;;;;;;15.33;100.00;99307.88;5089323;28;19916;-83
2023/08/02 06:47:22;;;;;;;;;;;;;;;15.29;100.00;99301.91;5072836;28;19924;-83
2023/08/02 06:49:48;;;;;;;;;;;;;;;15.30;100.00;99297.41;5087051;28;19970;-84
2023/08/02 06:52:13;;;;;;;;;;;;;;;15.30;100.00;99279.59;5073797;28;19920;-83
2023/08/02 06:54:41;;;;;;;;;;;;;;;15.34;100.00;99277.59;5078105;28;19927;-84
2023/08/02 06:57:08;;;;;;;;;;;;;;;15.33;100.00;99271.41;5082134;28;20011;-83
2023/08/02 06:59:33;;;;;;;;;;;;;;;15.35;100.00;99260.63;5086427;28;20278;-83
2023/08/02 07:01:59;;;;;;;;;;;;;;;15.35;100.00;99264.16;5074834;28;20024;-84
2023/08/02 07:04:24;;;;;;;;;;;;;;;15.37;100.00;99256.91;5065611;28;19956;-82
2023/08/02 07:06:50;;;;;;;;;;;;;;;15.38;100.00;99241.75;5083228;28;20338;-80
2023/08/02 07:09:15;;;;;;;;;;;;;;;15.41;100.00;99234.41;5074684;28;19932;-81
2023/08/02 07:11:40;;;;;;;;;;;;;;;15.41;100.00;99223.75;5078714;28;19946;-81
2023/08/02 07:14:06;;;;;;;;;;;;;;;15.45;100.00;99221.72;5061243;28;20603;-82
2023/08/02 07:16:31;;;;;;;;;;;;;;;15.43;100.00;99220.94;5084446;28;19913;-82
2023/08/02 07:18:58;;;;;;;;;;;;;;;15.46;100.00;99223.44;5060344;28;19964;-83
2023/08/02 07:21:24;;;;;;;;;;;;;;;15.49;100.00;99210.72;5058031;28;20440;-80
2023/08/02 07:23:49;;;;;;;;;;;;;;;15.51;100.00;99213.31;5075428;28;19920;-80
2023/08/02 07:26:14;;;;;;;;;;;;;;;15.54;100.00;99212.22;5067317;28;20383;-80
2023/08/02 07:28:40;;;;;;;;;;;;;;;15.55;100.00;99201.44;5069714;28;20359;-80
2023/08/02 07:31:08;;;;;;;;;;;;;;;15.57;100.00;99202.19;5054495;28;19925;-80
2023/08/02 07:33:34;;;;;;;;;;;;;;;15.57;100.00;99201.34;5067023;28;20399;-81
2023/08/02 07:35:59;;;;;;;;;;;;;;;15.56;100.00;99200.50;5076721;28;19985;-80
2023/08/02 07:38:24;;;;;;;;;;;;;;;15.57;100.00;99190.69;5074896;28;19928;-80
2023/08/02 07:40:50;;;;;;;;;;;;;;;15.58;100.00;99187.03;5068357;28;20062;-80
2023/08/02 07:43:15;;;;;;;;;;;;;;;15.61;100.00;99173.50;5077683;28;19921;-81
2023/08/02 07:45:41;;;;;;;;;;;;;;;15.64;100.00;99175.94;5054323;28;19921;-82
2023/08/02 07:48:06;;;;;;;;;;;;;;;15.67;100.00;99163.25;5076118;28;20351;-84
2023/08/02 07:50:32;;;;;;;;;;;;;;;15.75;100.00;99159.22;5055127;28;19960;-83
2023/08/02 07:52:57;;;;;;;;;;;;;;;15.80;100.00;99152.63;5051180;28;19921;-82
2023/08/02 07:55:22;;;;;;;;;;;;;;;15.85;100.00;99153.16;5055316;28;20325;-83
2023/08/02 07:57:49;;;;;;;;;;;;;;;15.87;100.00;99137.88;5071800;28;19924;-82
2023/08/02 08:00:14;;;;;;;;;;;;;;;15.93;100.00;99141.91;5074800;28;19916;-83
2023/08/02 08:02:40;;;;;;;;;;;;;;;16.01;100.00;99136.03;5078340;28;20007;-84
2023/08/02 08:05:06;;;;;;;;;;;;;;;16.04;100.00;99125.97;5071778;28;20337;-84
2023/08/02 08:07:31;;;;;;;;;;;;;;;16.07;100.00;99133.78;5055775;28;20398;-82
2023/08/02 08:09:57;;;;;;;;;;;;;;;16.08;100.00;99135.47;5071659;28;20014;-82
2023/08/02 08:12:24;;;;;;;;;;;;;;;16.13;100.00;99125.31;5067128;28;20334;-83
2023/08/02 08:14:50;;;;;;;;;;;;;;;16.22;100.00;99121.13;5068254;28;19921;-83
2023/08/02 08:17:16;;;;;;;;;;;;;;;16.25;100.00;99109.38;5082346;28;19952;-83
2023/08/02 08:19:43;;;;;;;;;;;;;;;16.28;100.00;99110.00;5073502;28;19920;-81
2023/08/02 08:22:08;;;;;;;;;;;;;;;16.30;100.00;99113.41;5068724;28;19920;-83
2023/08/02 08:24:33;;;;;;;;;;;;;;;16.33;100.00;99104.31;5077918;28;19917;-83
2023/08/02 08:26:59;;;;;;;;;;;;;;;16.35;100.00;99102.41;5055405;28;20024;-83
2023/08/02 08:29:26;;;;;;;;;;;;;;;16.37;100.00;99112.94;5055208;28;19924;-83
2023/08/02 08:31:51;;;;;;;;;;;;;;;16.38;100.00;99104.84;5064829;28;20362;-85
2023/08/02 08:34:17;;;;;;;;;;;;;;;16.42;100.00;99094.75;5074581;28;19938;-86
2023/08/02 08:36:42;;;;;;;;;;;;;;;16.45;100.00;99107.91;5049520;28;20019;-85
2023/08/02 08:39:07;;;;;;;;;;;;;;;16.52;100.00;99106.50;5067814;28;19928;-86
2023/08/02 08:41:33;;;;;;;;;;;;;;;16.57;100.00;99099.00;5068791;28;20003;-85
2023/08/02 08:44:05;;;;;;;;;;;;;;;16.54;100.00;99094.72;5068006;28;20361;-86
2023/08/02 08:46:31;;;;;;;;;;;;;;;16.59;100.00;99088.16;5065606;28;19920;-84
2023/08/02 08:48:57;;;;;;;;;;;;;;;16.65;100.00;99088.56;5065253;28;19986;-84
2023/08/02 08:51:23;;;;;;;;;;;;;;;16.74;100.00;99087.00;5065852;28;20387;-85
2023/08/02 08:53:50;;;;;;;;;;;;;;;16.84;100.00;99085.41;5066656;28;19921;-85
2023/08/02 08:56:17;;;;;;;;;;;;;;;16.95;100.00;99079.25;5066225;28;19912;-85
2023/08/02 08:58:43;;;;;;;;;;;;;;;17.06;100.00;99081.09;5064951;28;19978;-83
2023/08/02 09:01:09;;;;;;;;;;;;;;;17.21;100.00;99093.31;5066251;28;19951;-83
2023/08/02 09:03:34;;;;;;;;;;;;;;;17.37;100.00;99090.28;5070270;28;20006;-84
2023/08/02 09:06:00;;;;;;;;;;;;;;;17.51;100.00;99075.81;5038252;28;20159;-84
2023/08/02 09:08:26;;;;;;;;;;;;;;;17.65;100.00;99069.38;5054273;28;20403;-83
2023/08/02 09:10:52;;;;;;;;;;;;;;;17.77;100.00;99073.75;5065271;28;20336;-84
2023/08/02 09:13:24;;;;;;;;;;;;;;;17.85;100.00;99063.28;5064134;28;19955;-83
2023/08/02 09:16:05;;;;;;;;;;;;;;;17.96;100.00;99063.28;5068454;28;20022;-82
2023/08/02 09:18:44;;;;;;;;;;;;;;;18.13;100.00;99053.91;5036621;28;19966;-82
2023/08/02 09:21:12;;;;;;;;;;;;;;;18.17;100.00;99055.31;5069925;28;19920;-82
2023/08/02 09:23:37;;;;;;;;;;;;;;;18.27;100.00;99047.38;5053658;28;20343;-82
2023/08/02 09:26:10;;;;;;;;;;;;;;;18.39;100.00;99043.69;5053186;28;20007;-82
2023/08/02 09:28:36;;;;;;;;;;;;;;;18.53;100.00;99039.03;5070077;28;19924;-81
